Time;durP1;ratioP1;P1;durP2;ratioP2;P2;SDS_P1;SDS_P2;PMS_P1;PMS_P2;Temp;Humidity;BMP_temperature;BMP_pressure;BME280_temperature;BME280_humidity;BME280_pressure;Samples;Min_cycle;Max_cycle;Signal;HPM_P1;HPM_P2
2021/10/20 00:00:24;;;;;;;6.38;4.15;;;;;;;18.84;61.89;100904.44;5054316;28;20044;-61
2021/10/20 00:02:53;;;;;;;;;;;;;;;18.67;62.76;100891.69;5055729;28;20064;-62
2021/10/20 00:05:20;;;;;;;5.82;3.97;;;;;;;18.76;62.15;100891.50;5054849;28;19928;-61
2021/10/20 00:07:48;;;;;;;8.00;4.45;;;;;;;18.82;61.91;100887.25;5052823;28;20071;-61
2021/10/20 00:10:17;;;;;;;10.65;4.78;;;;;;;18.72;62.44;100882.25;5040605;28;20057;-61
2021/10/20 00:12:46;;;;;;;9.20;4.70;;;;;;;18.91;62.13;100874.72;5052501;28;20079;-59
2021/10/20 00:15:16;;;;;;;6.17;4.20;;;;;;;19.00;61.87;100877.31;5055185;28;20057;-61
2021/10/20 00:17:43;;;;;;;7.15;4.47;;;;;;;18.92;61.97;100876.34;5054755;28;20053;-61
2021/10/20 00:20:14;;;;;;;7.88;4.38;;;;;;;18.99;62.08;100867.28;5054925;28;20041;-61
2021/10/20 00:22:42;;;;;;;9.95;4.32;;;;;;;19.10;61.72;100859.97;5054733;28;20045;-61
2021/10/20 00:25:10;;;;;;;8.52;4.50;;;;;;;18.86;62.28;100851.88;5054745;28;20053;-61
2021/10/20 00:27:38;;;;;;;8.55;4.60;;;;;;;18.85;62.29;100847.44;5054361;28;20372;-61
2021/10/20 00:30:06;;;;;;;7.20;4.22;;;;;;;18.93;62.03;100850.00;5054695;28;20477;-60
2021/10/20 00:32:33;;;;;;;11.82;4.40;;;;;;;18.97;62.00;100838.94;5054551;28;20496;-61
2021/10/20 00:35:01;;;;;;;8.13;4.90;;;;;;;18.94;62.37;100848.03;5055344;28;20587;-61
2021/10/20 00:37:28;;;;;;;8.52;4.80;;;;;;;18.98;62.19;100846.16;5054658;28;20060;-61
2021/10/20 00:39:55;;;;;;;6.35;4.45;;;;;;;19.14;61.96;100852.47;5067102;28;20083;-61
2021/10/20 00:42:23;;;;;;;9.68;4.32;;;;;;;19.23;61.84;100846.66;5075097;28;20056;-61
2021/10/20 00:44:53;;;;;;;10.43;4.40;;;;;;;19.04;62.00;100839.91;5074848;28;20041;-61
2021/10/20 00:47:20;;;;;;;6.68;4.70;;;;;;;18.84;62.79;100834.66;5048729;28;20053;-62
2021/10/20 00:49:49;;;;;;;7.32;4.57;;;;;;;18.91;63.03;100826.44;5034694;28;20393;-61
2021/10/20 00:52:17;;;;;;;7.78;4.35;;;;;;;18.96;62.78;100821.41;5034691;28;20056;-61
2021/10/20 00:54:44;;;;;;;7.32;4.20;;;;;;;18.83;63.27;100825.47;5034578;28;20041;-61
2021/10/20 00:57:12;;;;;;;7.25;4.30;;;;;;;18.66;63.78;100825.09;5033267;28;20056;-61
2021/10/20 00:59:39;;;;;;;7.60;4.68;;;;;;;18.99;63.00;100817.84;5034696;28;20045;-61
2021/10/20 01:02:08;;;;;;;8.30;4.88;;;;;;;19.02;62.75;100813.53;5036385;28;20049;-62
2021/10/20 01:04:36;;;;;;;9.65;5.07;;;;;;;18.86;63.98;100805.19;5038328;28;20045;-60
2021/10/20 01:07:04;;;;;;;10.00;4.53;;;;;;;18.77;63.83;100809.41;5038349;28;20055;-61
2021/10/20 01:09:32;;;;;;;7.68;4.78;;;;;;;18.63;64.40;100806.31;5037891;28;20053;-60
2021/10/20 01:11:59;;;;;;;7.25;4.68;;;;;;;18.79;64.19;100807.84;5038432;28;20053;-61
2021/10/20 01:14:29;;;;;;;7.10;4.50;;;;;;;18.79;64.21;100812.63;5038663;28;20064;-61
2021/10/20 01:16:57;;;;;;;8.52;4.95;;;;;;;18.58;64.88;100799.03;5038474;28;20053;-61
2021/10/20 01:19:25;;;;;;;6.15;4.50;;;;;;;18.54;64.91;100794.53;5038068;28;20050;-60
2021/10/20 01:21:53;;;;;;;7.15;4.55;;;;;;;18.59;64.63;100792.28;5037975;28;20037;-60
2021/10/20 01:24:21;;;;;;;11.30;4.78;;;;;;;18.73;64.70;100794.56;5037847;28;20049;-60
2021/10/20 01:26:50;;;;;;;8.88;4.75;;;;;;;18.85;64.21;100788.81;5036831;28;20050;-60
2021/10/20 01:29:18;;;;;;;7.57;4.97;;;;;;;18.67;64.84;100780.06;5036695;28;20076;-61
2021/10/20 01:31:51;;;;;;;7.55;4.80;;;;;;;18.71;64.66;100775.38;5038069;28;20056;-61
2021/10/20 01:34:18;;;;;;;7.97;4.50;;;;;;;18.74;64.53;100769.06;5037573;28;20054;-61
2021/10/20 01:36:48;;;;;;;7.50;4.32;;;;;;;18.74;64.32;100769.06;5037729;28;20057;-62
2021/10/20 01:39:16;;;;;;;10.27;5.03;;;;;;;18.39;65.68;100775.84;5050566;28;20048;-61
2021/10/20 01:41:44;;;;;;;8.38;5.03;;;;;;;18.60;65.45;100768.75;5077770;28;20041;-60
2021/10/20 01:44:11;;;;;;;8.95;4.85;;;;;;;18.67;64.96;100768.13;5077727;28;20450;-62
2021/10/20 01:46:39;;;;;;;10.45;5.70;;;;;;;18.72;65.13;100759.47;5077381;28;20423;-60
2021/10/20 01:49:06;;;;;;;8.50;4.88;;;;;;;18.87;64.66;100761.38;5077662;28;20056;-61
2021/10/20 01:51:33;;;;;;;7.50;5.05;;;;;;;18.91;64.48;100751.09;5077744;28;20051;-60
2021/10/20 01:54:01;;;;;;;8.70;5.20;;;;;;;18.81;65.32;100749.69;5077242;28;20048;-61
2021/10/20 01:56:28;;;;;;;7.22;5.07;;;;;;;18.60;65.71;100740.88;5076174;28;20060;-60
2021/10/20 01:58:55;;;;;;;7.57;5.22;;;;;;;18.68;65.68;100733.47;5077581;28;20041;-62
2021/10/20 02:01:22;;;;;;;9.13;5.15;;;;;;;18.76;65.51;100729.63;5077201;28;20044;-62
2021/10/20 02:03:50;;;;;;;8.98;5.50;;;;;;;18.50;66.58;100715.53;5075599;28;20063;-61
2021/10/20 02:06:18;;;;;;;7.45;5.38;;;;;;;18.59;66.43;100705.78;5076848;28;20056;-61
2021/10/20 02:08:47;;;;;;;9.68;5.20;;;;;;;18.65;66.47;100715.50;5059120;28;20060;-61
2021/10/20 02:11:18;;;;;;;8.60;5.95;;;;;;;18.46;66.92;100698.72;5075803;28;20044;-60
2021/10/20 02:13:46;;;;;;;10.98;5.75;;;;;;;18.55;66.87;100698.53;5075575;28;20055;-60
2021/10/20 02:16:13;;;;;;;7.43;5.18;;;;;;;18.67;66.54;100692.78;5075297;28;20040;-60
2021/10/20 02:18:40;;;;;;;8.77;5.80;;;;;;;18.78;66.21;100688.22;5040401;28;20045;-60
2021/10/20 02:21:08;;;;;;;7.15;5.00;;;;;;;18.67;66.47;100693.59;5055364;28;20408;-61
2021/10/20 02:23:35;;;;;;;13.20;6.15;;;;;;;18.52;66.96;100686.09;5056911;28;20064;-58
2021/10/20 02:26:03;;;;;;;11.18;5.38;;;;;;;18.56;67.02;100695.38;5056643;28;20045;-61
2021/10/20 02:28:31;;;;;;;8.85;5.40;;;;;;;18.28;67.81;100683.56;5056865;28;20068;-60
2021/10/20 02:30:59;;;;;;;10.77;5.70;;;;;;;18.23;67.90;100672.72;5056797;28;20041;-60
2021/10/20 02:33:26;;;;;;;10.38;5.68;;;;;;;18.27;67.75;100661.63;5056597;28;20048;-61
2021/10/20 02:35:54;;;;;;;8.55;5.20;;;;;;;18.45;67.53;100662.81;5054692;28;20416;-59
2021/10/20 02:38:21;;;;;;;7.97;5.63;;;;;;;18.28;67.83;100652.91;5056520;28;20489;-61
2021/10/20 02:40:50;;;;;;;7.20;5.13;;;;;;;18.22;68.47;100645.22;5076593;28;20511;-61
2021/10/20 02:43:17;;;;;;;9.00;5.60;;;;;;;18.25;68.09;100645.28;5075138;28;20131;-60
2021/10/20 02:45:45;;;;;;;8.27;5.13;;;;;;;18.28;67.93;100647.31;5074219;28;20436;-61
2021/10/20 02:48:13;;;;;;;7.72;5.43;;;;;;;18.16;68.52;100636.31;5076325;28;20071;-61
2021/10/20 02:50:40;;;;;;;10.65;6.05;;;;;;;18.10;68.57;100634.19;5075313;28;20067;-61
2021/10/20 02:53:08;;;;;;;9.30;5.93;;;;;;;17.97;69.12;100627.94;5055964;28;20037;-60
2021/10/20 02:55:36;;;;;;;10.52;5.93;;;;;;;17.86;69.72;100624.09;5056036;28;20424;-61
2021/10/20 02:58:03;;;;;;;9.55;6.45;;;;;;;18.24;68.75;100620.53;5056330;28;20052;-60
2021/10/20 03:00:31;;;;;;;11.50;6.78;;;;;;;18.21;68.27;100616.50;5056377;28;20056;-61
2021/10/20 03:02:58;;;;;;;11.18;6.43;;;;;;;18.09;68.93;100624.19;5056332;28;20493;-61
2021/10/20 03:05:25;;;;;;;8.60;6.40;;;;;;;18.07;68.95;100610.63;5056064;28;20119;-60
2021/10/20 03:07:54;;;;;;;10.80;6.40;;;;;;;18.02;69.82;100619.28;5056339;28;20057;-59
2021/10/20 03:10:21;;;;;;;8.55;6.28;;;;;;;18.06;69.37;100627.72;5055851;28;20045;-61
2021/10/20 03:12:49;;;;;;;12.25;6.57;;;;;;;17.72;70.29;100621.81;5054990;28;20057;-61
2021/10/20 03:15:16;;;;;;;11.02;6.68;;;;;;;17.62;70.77;100630.75;5055698;28;20056;-60
2021/10/20 03:17:43;;;;;;;12.18;6.05;;;;;;;17.84;70.37;100635.63;5055889;28;20053;-60
2021/10/20 03:20:11;;;;;;;10.85;6.53;;;;;;;17.87;70.39;100646.03;5055884;28;20049;-60
2021/10/20 03:22:42;;;;;;;10.40;6.43;;;;;;;17.76;70.60;100656.16;5055716;28;20045;-60
2021/10/20 03:25:11;;;;;;;8.60;6.00;;;;;;;17.95;70.31;100644.22;5054844;28;20064;-60
2021/10/20 03:27:47;;;;;;;11.00;6.20;;;;;;;17.94;69.88;100656.53;5055599;28;20079;-63
2021/10/20 03:30:16;;;;;;;13.50;6.15;;;;;;;18.05;69.55;100640.84;5053066;28;20049;-61
2021/10/20 03:32:43;;;;;;;9.43;6.22;;;;;;;17.98;70.03;100629.53;5038064;28;20413;-60
2021/10/20 03:35:11;;;;;;;9.73;6.40;;;;;;;18.05;69.42;100628.88;5055485;28;20163;-60
2021/10/20 03:37:39;;;;;;;9.70;6.30;;;;;;;17.88;70.00;100627.34;5055802;28;20053;-62
2021/10/20 03:40:07;;;;;;;9.82;6.75;;;;;;;17.83;70.07;100617.28;5067376;28;20083;-60
2021/10/20 03:42:34;;;;;;;9.48;6.30;;;;;;;17.83;70.32;100625.66;5075542;28;20507;-61
2021/10/20 03:45:02;;;;;;;8.90;6.40;;;;;;;17.72;70.49;100624.59;5075894;28;20495;-60
2021/10/20 03:47:30;;;;;;;10.93;6.28;;;;;;;17.87;70.22;100617.34;5075525;28;20406;-59
2021/10/20 03:49:57;;;;;;;12.05;6.30;;;;;;;17.92;69.88;100617.88;5075411;28;20075;-59
2021/10/20 03:52:25;;;;;;;12.35;6.30;;;;;;;17.97;70.07;100619.59;5075489;28;20052;-61
2021/10/20 03:54:52;;;;;;;9.35;6.38;;;;;;;17.99;69.83;100615.25;5075263;28;20052;-60
2021/10/20 03:57:19;;;;;;;8.80;6.20;;;;;;;17.85;70.04;100619.72;5075139;28;20055;-61
2021/10/20 03:59:47;;;;;;;9.05;6.68;;;;;;;17.90;69.95;100617.44;5074063;28;20063;-60
2021/10/20 04:02:15;;;;;;;9.68;6.38;;;;;;;18.03;69.86;100620.09;5049709;28;20072;-61
2021/10/20 04:04:42;;;;;;;9.07;5.78;;;;;;;17.81;70.28;100616.03;5054861;28;20060;-61
2021/10/20 04:07:09;;;;;;;10.82;6.40;;;;;;;17.81;70.22;100605.72;5053287;28;20059;-60
2021/10/20 04:09:37;;;;;;;9.13;5.90;;;;;;;17.85;70.36;100608.56;5054939;28;20053;-62
2021/10/20 04:12:04;;;;;;;8.82;5.85;;;;;;;17.73;70.99;100581.63;5054869;28;20047;-61
2021/10/20 04:14:31;;;;;;;8.30;5.88;;;;;;;17.57;71.45;100566.16;5054975;28;20061;-61
2021/10/20 04:16:58;;;;;;;9.88;6.20;;;;;;;17.86;70.40;100571.97;5054514;28;20056;-61
2021/10/20 04:19:26;;;;;;;10.10;6.25;;;;;;;17.89;70.08;100565.66;5054684;28;20480;-62
2021/10/20 04:21:53;;;;;;;7.85;5.90;;;;;;;17.91;69.77;100568.09;5054819;28;20053;-60
2021/10/20 04:24:20;;;;;;;10.68;5.70;;;;;;;17.90;69.97;100566.47;5054659;28;20068;-62
2021/10/20 04:26:47;;;;;;;10.13;6.20;;;;;;;17.79;70.18;100571.00;5054592;28;20056;-60
2021/10/20 04:29:15;;;;;;;11.45;6.10;;;;;;;17.95;69.76;100578.16;5053678;28;20512;-60
2021/10/20 04:31:42;;;;;;;7.93;6.18;;;;;;;17.99;69.75;100578.22;5055443;28;20060;-61
2021/10/20 04:34:10;;;;;;;14.23;6.20;;;;;;;18.05;69.51;100567.56;5054747;28;20072;-61
2021/10/20 04:36:37;;;;;;;10.77;6.63;;;;;;;18.10;69.06;100550.56;5057324;28;20411;-61
2021/10/20 04:39:04;;;;;;;9.95;6.20;;;;;;;18.02;69.34;100543.22;5064033;28;20051;-61
2021/10/20 04:41:32;;;;;;;10.95;6.10;;;;;;;17.99;69.09;100581.78;5068773;28;20056;-61
2021/10/20 04:43:59;;;;;;;9.27;6.43;;;;;;;18.15;69.09;100580.94;5041373;28;20408;-61
2021/10/20 04:46:26;;;;;;;11.73;6.38;;;;;;;18.01;68.77;100589.78;5058109;28;20060;-60
2021/10/20 04:48:54;;;;;;;9.20;5.78;;;;;;;18.10;68.97;100579.22;5058865;28;20055;-61
2021/10/20 04:51:21;;;;;;;13.60;6.05;;;;;;;18.00;69.16;100574.25;5059398;28;20049;-60
2021/10/20 04:53:48;;;;;;;11.70;6.07;;;;;;;18.14;68.90;100584.88;5058576;28;20041;-61
2021/10/20 04:56:16;;;;;;;11.05;7.40;;;;;;;18.15;68.85;100592.88;5054119;28;20049;-61
2021/10/20 04:58:43;;;;;;;11.55;7.38;;;;;;;18.00;69.19;100596.53;5058276;28;20596;-60
2021/10/20 05:01:10;;;;;;;7.90;6.05;;;;;;;17.90;69.47;100608.28;5053567;28;20061;-61
2021/10/20 05:03:38;;;;;;;10.50;5.85;;;;;;;18.03;69.33;100606.16;5038444;28;20046;-61
2021/10/20 05:06:05;;;;;;;9.25;6.45;;;;;;;17.98;69.56;100585.75;5038171;28;20060;-61
2021/10/20 05:08:32;;;;;;;10.40;6.25;;;;;;;18.04;69.19;100588.25;5037979;28;20061;-60
2021/10/20 05:11:00;;;;;;;10.23;6.43;;;;;;;17.93;69.44;100590.81;5038326;28;20058;-61
2021/10/20 05:13:27;;;;;;;15.82;6.32;;;;;;;17.85;70.98;100606.56;5038413;28;20041;-60
2021/10/20 05:15:55;;;;;;;11.80;5.95;;;;;;;17.72;70.60;100587.56;5037870;28;20064;-61
2021/10/20 05:18:22;;;;;;;9.60;5.63;;;;;;;17.84;70.51;100574.31;5038389;28;20556;-61
2021/10/20 05:20:49;;;;;;;8.40;6.25;;;;;;;17.81;70.25;100580.63;5038359;28;20049;-62
2021/10/20 05:23:17;;;;;;;8.30;5.90;;;;;;;17.74;70.38;100569.31;5038157;28;20065;-62
2021/10/20 05:25:44;;;;;;;8.20;5.35;;;;;;;17.79;70.35;100574.59;5038100;28;20485;-61
2021/10/20 05:28:12;;;;;;;7.93;6.38;;;;;;;17.70;70.57;100562.03;5038147;28;20049;-61
2021/10/20 05:30:39;;;;;;;12.23;6.05;;;;;;;17.60;71.45;100560.66;5038838;28;20058;-61
2021/10/20 05:33:06;;;;;;;11.35;5.88;;;;;;;17.64;71.04;100563.53;5036738;28;20057;-62
2021/10/20 05:35:34;;;;;;;9.18;6.07;;;;;;;17.78;71.09;100536.75;5038086;28;20057;-61
2021/10/20 05:38:01;;;;;;;8.98;6.25;;;;;;;17.64;71.16;100547.59;5037689;28;20413;-61
2021/10/20 05:40:28;;;;;;;9.93;6.43;;;;;;;17.90;70.24;100530.25;5069943;28;20071;-62
2021/10/20 05:42:55;;;;;;;12.20;5.97;;;;;;;17.58;71.35;100526.78;5077777;28;20048;-61
2021/10/20 05:45:23;;;;;;;7.63;5.78;;;;;;;17.80;70.95;100526.06;5077558;28;20120;-61
2021/10/20 05:47:50;;;;;;;8.27;6.22;;;;;;;17.78;70.58;100520.03;5075244;28;20056;-60
2021/10/20 05:50:17;;;;;;;9.57;6.60;;;;;;;17.75;70.57;100517.19;5077404;28;20048;-61
2021/10/20 05:52:45;;;;;;;12.02;7.20;;;;;;;17.77;70.95;100510.06;5077312;28;20051;-61
2021/10/20 05:55:12;;;;;;;8.57;6.47;;;;;;;17.83;70.58;100511.41;5075751;28;20051;-61
2021/10/20 05:57:40;;;;;;;10.90;6.25;;;;;;;17.67;71.18;100513.47;5075850;28;20056;-62
2021/10/20 06:00:10;;;;;;;10.05;6.57;;;;;;;17.94;70.59;100508.81;5077246;28;20058;-62
2021/10/20 06:02:38;;;;;;;8.65;6.43;;;;;;;17.90;70.15;100513.53;5077055;28;20049;-62
2021/10/20 06:05:06;;;;;;;13.55;6.63;;;;;;;17.80;70.67;100494.63;5077404;28;20055;-62
2021/10/20 06:07:41;;;;;;;11.02;5.93;;;;;;;17.92;70.54;100509.19;5076873;28;20052;-63
2021/10/20 06:10:09;;;;;;;12.35;6.00;;;;;;;17.99;70.21;100514.91;5075681;28;20423;-61
2021/10/20 06:12:37;;;;;;;8.68;6.38;;;;;;;17.77;70.75;100509.25;5077227;28;20380;-60
2021/10/20 06:15:06;;;;;;;10.80;6.30;;;;;;;17.65;72.01;100504.66;5077035;28;20048;-54
2021/10/20 06:17:51;;;;;;;14.07;6.03;;;;;;;17.69;72.05;100494.41;5075791;28;20056;-62
2021/10/20 06:20:18;;;;;;;10.43;6.72;;;;;;;17.77;71.73;100484.19;5068668;28;20408;-62
2021/10/20 06:22:46;;;;;;;10.38;5.80;;;;;;;17.75;71.53;100467.03;5055188;28;20041;-60
2021/10/20 06:25:13;;;;;;;12.75;6.40;;;;;;;17.76;71.64;100475.03;5057158;28;20045;-61
2021/10/20 06:27:41;;;;;;;11.63;6.80;;;;;;;17.71;71.75;100471.75;5056240;28;20060;-60
2021/10/20 06:30:09;;;;;;;8.73;6.32;;;;;;;17.75;72.09;100472.59;5053984;28;20052;-60
2021/10/20 06:32:37;;;;;;;10.63;5.90;;;;;;;17.83;72.02;100471.59;5062625;28;20468;-60
2021/10/20 06:35:04;;;;;;;12.00;6.15;;;;;;;17.81;71.80;100483.09;5056740;28;20484;-61
2021/10/20 06:37:32;;;;;;;11.60;6.10;;;;;;;17.92;72.19;100484.09;5056320;28;20063;-61
2021/10/20 06:40:00;;;;;;;8.73;6.32;;;;;;;17.87;72.56;100476.03;5056113;28;20083;-61
2021/10/20 06:42:28;;;;;;;10.63;6.65;;;;;;;17.90;73.22;100478.09;5050637;28;20052;-60
2021/10/20 06:44:56;;;;;;;10.80;6.80;;;;;;;17.88;73.66;100483.25;5051499;28;20045;-58
2021/10/20 06:47:25;;;;;;;10.25;7.22;;;;;;;18.07;73.79;100476.84;5069467;28;20053;-60
2021/10/20 06:49:52;;;;;;;12.80;6.85;;;;;;;18.05;73.98;100470.00;5055560;28;20072;-61
2021/10/20 06:52:20;;;;;;;10.63;6.30;;;;;;;17.92;74.09;100469.38;5054793;28;20068;-66
2021/10/20 06:54:47;;;;;;;12.02;6.88;;;;;;;17.78;74.70;100471.88;5055006;28;20053;-61
2021/10/20 06:57:14;;;;;;;14.13;7.80;;;;;;;17.79;75.34;100452.00;5054014;28;20045;-60
2021/10/20 06:59:43;;;;;;;12.68;7.13;;;;;;;17.71;75.54;100455.81;5048972;28;20120;-60
2021/10/20 07:02:10;;;;;;;12.93;7.13;;;;;;;17.62;76.32;100455.25;5063274;28;20040;-62
2021/10/20 07:04:38;;;;;;;12.68;7.30;;;;;;;17.66;75.96;100444.97;5054907;28;20052;-60
2021/10/20 07:07:10;;;;;;;12.65;7.88;;;;;;;17.49;77.34;100437.06;5037597;28;20049;-60
2021/10/20 07:09:37;;;;;;;10.48;7.43;;;;;;;17.46;77.48;100437.81;5055064;28;20423;-61
2021/10/20 07:12:05;;;;;;;16.60;7.90;;;;;;;17.87;77.68;100444.56;5034936;28;20149;-58
2021/10/20 07:14:33;;;;;;;12.43;7.18;;;;;;;17.89;76.47;100434.69;5049513;28;20068;-58
2021/10/20 07:17:01;;;;;;;10.52;6.93;;;;;;;18.04;75.55;100443.31;5054863;28;20055;-58
2021/10/20 07:19:29;;;;;;;12.13;7.22;;;;;;;18.04;74.91;100433.00;5054083;28;20061;-56
2021/10/20 07:21:58;;;;;;;10.70;7.10;;;;;;;18.23;74.71;100435.72;5047720;28;20045;-58
2021/10/20 07:24:26;;;;;;;13.98;7.05;;;;;;;18.16;74.53;100418.06;5053755;28;20060;-58
2021/10/20 07:26:54;;;;;;;10.98;7.13;;;;;;;18.10;74.37;100423.13;5054095;28;20045;-58
2021/10/20 07:29:21;;;;;;;12.88;7.10;;;;;;;18.09;74.57;100427.09;5053544;28;20851;-60
2021/10/20 07:31:49;;;;;;;9.63;7.00;;;;;;;17.75;75.82;100434.41;5053717;28;20045;-60
2021/10/20 07:34:16;;;;;;;10.32;7.65;;;;;;;17.76;76.30;100436.03;5049249;28;20049;-60
2021/10/20 07:36:44;;;;;;;8.90;6.80;;;;;;;17.57;77.17;100430.47;5033357;28;20060;-60
2021/10/20 07:39:12;;;;;;;10.13;7.57;;;;;;;17.54;77.72;100436.78;5054835;28;20055;-56
2021/10/20 07:41:40;;;;;;;13.88;7.40;;;;;;;17.58;77.44;100447.97;5055063;28;20053;-63
2021/10/20 07:44:07;;;;;;;12.00;7.18;;;;;;;17.63;77.44;100440.16;5054465;28;20052;-60
2021/10/20 07:46:34;;;;;;;12.27;7.28;;;;;;;17.73;77.33;100439.53;5069606;28;20049;-59
2021/10/20 07:49:03;;;;;;;11.55;7.50;;;;;;;17.85;76.82;100447.75;5053435;28;20404;-57
2021/10/20 07:51:32;;;;;;;11.13;7.00;;;;;;;17.92;76.35;100456.25;5057858;28;20053;-60
2021/10/20 07:53:59;;;;;;;11.13;7.50;;;;;;;17.86;77.16;100463.31;5052235;28;20409;-59
2021/10/20 07:56:32;;;;;;;10.27;7.47;;;;;;;17.80;76.95;100480.69;5054722;28;20048;-61
2021/10/20 07:59:00;;;;;;;12.95;7.63;;;;;;;18.02;76.43;100470.75;5057118;28;20041;-60
2021/10/20 08:01:27;;;;;;;10.13;7.40;;;;;;;18.11;75.58;100474.94;5052610;28;20056;-62
2021/10/20 08:03:57;;;;;;;10.10;7.63;;;;;;;17.90;77.00;100489.22;5043906;28;20045;-63
2021/10/20 08:06:24;;;;;;;12.15;8.35;;;;;;;17.87;77.22;100478.84;5049942;28;20060;-59
2021/10/20 08:08:52;;;;;;;11.65;7.32;;;;;;;17.87;77.18;100475.22;5054576;28;20049;-60
2021/10/20 08:11:19;;;;;;;14.05;8.52;;;;;;;17.91;77.47;100474.16;5053755;28;20056;-60
2021/10/20 08:13:46;;;;;;;10.48;7.78;;;;;;;17.90;77.19;100466.94;5054484;28;20472;-60
2021/10/20 08:16:14;;;;;;;10.85;6.97;;;;;;;17.99;76.80;100489.81;5054502;28;20411;-61
2021/10/20 08:18:41;;;;;;;12.02;7.43;;;;;;;17.90;77.25;100478.09;5048689;28;20048;-60
2021/10/20 08:21:09;;;;;;;15.18;7.88;;;;;;;17.93;77.54;100490.50;5053337;28;20060;-60
2021/10/20 08:23:36;;;;;;;14.40;7.47;;;;;;;18.03;77.25;100497.47;5054127;28;20515;-60
2021/10/20 08:26:03;;;;;;;12.52;8.07;;;;;;;17.81;77.95;100494.25;5053252;28;20107;-60
2021/10/20 08:28:30;;;;;;;17.80;8.85;;;;;;;17.84;78.15;100501.06;5054147;28;20497;-63
2021/10/20 08:30:58;;;;;;;12.32;7.95;;;;;;;18.11;77.47;100486.09;5068455;28;20084;-63
2021/10/20 08:33:25;;;;;;;13.25;8.20;;;;;;;18.28;76.18;100490.38;5054586;28;20060;-60
2021/10/20 08:35:53;;;;;;;10.27;7.80;;;;;;;18.39;76.23;100494.97;5052537;28;20045;-60
2021/10/20 08:38:20;;;;;;;11.82;7.63;;;;;;;18.42;75.47;100487.88;5054190;28;20051;-59
2021/10/20 08:40:48;;;;;;;11.75;8.25;;;;;;;18.26;76.42;100487.13;5054387;28;20048;-60
2021/10/20 08:43:19;;;;;;;12.75;7.78;;;;;;;18.37;76.47;100483.38;5069673;28;20052;-59
2021/10/20 08:45:47;;;;;;;15.38;8.23;;;;;;;18.36;76.23;100484.53;5052267;28;20045;-59
2021/10/20 08:48:19;;;;;;;11.98;8.82;;;;;;;18.33;76.80;100487.25;5053635;28;20049;-61
2021/10/20 08:50:53;;;;;;;12.25;8.80;;;;;;;18.35;76.32;100496.06;5053210;28;20417;-60
2021/10/20 08:53:21;;;;;;;13.63;8.48;;;;;;;18.52;76.21;100506.75;5053837;28;20599;-60
2021/10/20 08:55:50;;;;;;;16.25;11.07;;;;;;;18.45;76.09;100509.44;5054208;28;20084;-62
2021/10/20 08:58:18;;;;;;;15.20;10.13;;;;;;;18.42;76.67;100508.19;5054086;28;20057;-63
2021/10/20 09:00:45;;;;;;;11.77;8.75;;;;;;;18.39;76.57;100508.91;5054329;28;20472;-63
2021/10/20 09:03:15;;;;;;;14.27;8.63;;;;;;;18.47;76.69;100507.06;5054189;28;20063;-63
2021/10/20 09:05:43;;;;;;;11.85;9.07;;;;;;;18.50;76.60;100507.13;5052732;28;20045;-62
2021/10/20 09:08:10;;;;;;;20.15;9.13;;;;;;;18.53;75.97;100509.19;5053518;28;20064;-63
2021/10/20 09:10:37;;;;;;;14.68;8.32;;;;;;;18.72;75.85;100503.56;5069507;28;20056;-61
2021/10/20 09:13:05;;;;;;;12.55;8.13;;;;;;;18.57;76.13;100498.91;5054186;28;20059;-61
2021/10/20 09:15:35;;;;;;;13.23;8.88;;;;;;;18.42;77.40;100497.03;5052017;28;20056;-60
2021/10/20 09:18:04;;;;;;;;;;;;;;;18.62;76.82;100489.44;5053299;28;20057;-59
2021/10/20 09:20:32;;;;;;;18.58;8.73;;;;;;;18.43;77.49;100490.28;5042038;28;19921;-60
2021/10/20 09:23:07;;;;;;;15.45;9.52;;;;;;;18.53;78.02;100488.88;5053293;28;20051;-62
2021/10/20 09:25:36;;;;;;;14.15;8.77;;;;;;;18.60;77.72;100494.56;5057635;28;20650;-62
2021/10/20 09:28:05;;;;;;;15.43;9.77;;;;;;;18.36;78.41;100486.53;5055298;28;20056;-63
2021/10/20 09:30:33;;;;;;;17.02;9.90;;;;;;;18.32;79.13;100485.66;5056703;28;20053;-62
2021/10/20 09:33:01;;;;;;;13.73;9.25;;;;;;;18.48;79.26;100483.59;5054989;28;20049;-63
2021/10/20 09:35:29;;;;;;;16.70;9.20;;;;;;;18.47;79.20;100476.41;5054648;28;20052;-63
2021/10/20 09:38:00;;;;;;;16.58;9.32;;;;;;;18.54;78.65;100477.34;5056490;28;20514;-63
2021/10/20 09:40:40;;;;;;;16.02;8.80;;;;;;;18.55;79.13;100473.34;5055454;28;20060;-63
2021/10/20 09:43:10;;;;;;;16.17;8.90;;;;;;;18.88;77.06;100472.72;5059068;28;20427;-64
2021/10/20 09:45:40;;;;;;;14.85;8.43;;;;;;;18.93;76.78;100467.59;5056086;28;20045;-64
2021/10/20 09:48:24;;;;;;;12.70;8.82;;;;;;;19.07;76.10;100475.41;5058063;28;20048;-63
2021/10/20 09:51:06;;;;;;;15.00;8.70;;;;;;;18.87;76.81;100476.66;5056421;28;20053;-63
2021/10/20 09:53:41;;;;;;;14.77;8.50;;;;;;;18.93;77.16;100466.81;5055676;28;20060;-62
2021/10/20 09:56:23;;;;;;;12.57;8.80;;;;;;;19.14;75.71;100474.69;5057389;28;20052;-63
2021/10/20 09:58:52;;;;;;;12.32;8.38;;;;;;;18.94;76.85;100466.44;5057229;28;20045;-62
2021/10/20 10:01:20;;;;;;;11.63;8.80;;;;;;;19.16;75.64;100466.75;5055136;28;20056;-62
2021/10/20 10:03:49;;;;;;;15.77;8.98;;;;;;;19.17;75.46;100452.41;5054945;28;20053;-61
2021/10/20 10:06:16;;;;;;;16.85;8.73;;;;;;;18.97;76.21;100453.69;5050065;28;20046;-63
2021/10/20 10:08:45;;;;;;;15.63;8.35;;;;;;;19.18;76.13;100454.00;5056318;28;20057;-62
2021/10/20 10:11:13;;;;;;;13.18;7.82;;;;;;;19.29;75.50;100454.16;5048322;28;20394;-63
2021/10/20 10:13:49;;;;;;;20.23;8.43;;;;;;;19.11;75.78;100447.53;5066940;28;20057;-60
2021/10/20 10:16:19;;;;;;;13.27;8.32;;;;;;;19.31;75.29;100440.66;5036821;28;20121;-61
2021/10/20 10:18:47;;;;;;;13.73;7.43;;;;;;;19.29;74.67;100449.38;5035823;28;20099;-63
2021/10/20 10:21:42;;;;;;;13.10;8.18;;;;;;;19.49;74.23;100447.28;5037343;28;20445;-64
2021/10/20 10:24:15;;;;;;;14.27;8.88;;;;;;;19.29;74.82;100451.38;5047439;28;20061;-65
2021/10/20 10:27:03;;;;;;;12.55;8.85;;;;;;;19.36;74.67;100457.06;5051423;28;20049;-62
2021/10/20 10:29:33;;;;;;;13.20;8.40;;;;;;;19.51;74.06;100440.13;5052390;28;20057;-59
2021/10/20 10:32:05;;;;;;;;;;;;;;;19.31;74.68;100449.03;5055482;28;20049;-62
2021/10/20 10:34:37;;;;;;;13.18;7.53;;;;;;;19.50;74.42;100437.72;5055400;28;20392;-62
2021/10/20 10:37:05;;;;;;;13.18;8.02;;;;;;;19.70;74.04;100436.38;5053990;28;20511;-59
2021/10/20 10:39:35;;;;;;;13.48;7.30;;;;;;;19.81;72.84;100437.28;5058541;28;20492;-60
2021/10/20 10:42:05;;;;;;;13.18;7.43;;;;;;;19.71;72.95;100435.19;5054893;28;20052;-59
2021/10/20 10:44:50;;;;;;;11.80;8.10;;;;;;;19.83;72.95;100441.31;5054356;28;20045;-62
2021/10/20 10:47:21;;;;;;;13.95;8.77;;;;;;;19.81;72.82;100428.91;5044720;28;20064;-61
2021/10/20 10:49:53;;;;;;;12.63;7.95;;;;;;;19.86;72.41;100418.19;5053794;28;20060;-63
2021/10/20 10:52:31;;;;;;;13.90;7.70;;;;;;;19.83;72.46;100416.16;5055092;28;20052;-63
2021/10/20 10:55:17;;;;;;;16.17;8.00;;;;;;;20.02;71.94;100410.38;5046778;28;20052;-62
2021/10/20 10:57:58;;;;;;;12.05;7.60;;;;;;;19.94;71.97;100407.91;5054022;28;20049;-61
2021/10/20 11:00:30;;;;;;;12.38;6.40;;;;;;;20.38;71.07;100400.34;5055451;28;20068;-63
2021/10/20 11:02:59;;;;;;;9.70;6.38;;;;;;;19.96;72.69;100417.50;5055505;28;20052;-64
2021/10/20 11:05:29;;;;;;;13.30;6.70;;;;;;;19.96;72.06;100409.09;5052302;28;20068;-63
2021/10/20 11:08:04;;;;;;;13.40;6.65;;;;;;;20.12;71.43;100417.25;5055128;28;20295;-61
2021/10/20 11:10:34;;;;;;;12.30;6.85;;;;;;;20.17;71.55;100404.97;5055755;28;20052;-63
2021/10/20 11:13:02;;;;;;;12.20;7.03;;;;;;;20.15;71.89;100411.69;5055907;28;20512;-62
2021/10/20 11:15:30;;;;;;;11.10;6.75;;;;;;;20.21;71.47;100411.41;5059619;28;20048;-63
2021/10/20 11:17:58;;;;;;;14.07;7.70;;;;;;;20.28;71.08;100401.06;5053729;28;20428;-63
2021/10/20 11:20:29;;;;;;;14.13;6.80;;;;;;;20.32;71.12;100395.50;5055864;28;20404;-60
2021/10/20 11:23:02;;;;;;;10.57;6.20;;;;;;;20.38;70.93;100383.56;5055173;28;20056;-59
2021/10/20 11:25:29;;;;;;;10.65;6.10;;;;;;;20.21;71.14;100384.22;5054420;28;20499;-60
2021/10/20 11:27:58;;;;;;;14.77;6.00;;;;;;;20.03;72.11;100386.81;5054133;28;20065;-61